createdAt,value
2023-05-15T00:00:33.664Z,99311.78
2023-05-15T00:03:02.517Z,99307.19
2023-05-15T00:05:30.572Z,99309.88
2023-05-15T00:07:58.598Z,99299.81
2023-05-15T00:10:26.730Z,99304.16
2023-05-15T00:12:54.793Z,99312.25
2023-05-15T00:15:23.101Z,99319.78
2023-05-15T00:17:52.884Z,99328.69
2023-05-15T00:20:21.077Z,99322.47
2023-05-15T00:22:49.329Z,99328.94
2023-05-15T00:25:19.701Z,99331.63
2023-05-15T00:27:49.612Z,99323.75
2023-05-15T00:30:17.624Z,99322.13
2023-05-15T00:32:45.736Z,99320.25
2023-05-15T00:35:15.209Z,99300.78
2023-05-15T00:37:43.174Z,99304.53
2023-05-15T00:40:12.431Z,99298.88
2023-05-15T00:42:40.386Z,99315.91
2023-05-15T00:45:09.960Z,99313.19
2023-05-15T00:47:38.126Z,99313.78
2023-05-15T00:50:07.125Z,99297.59
2023-05-15T00:52:36.745Z,99288.47
2023-05-15T00:55:04.966Z,99270.59
2023-05-15T00:57:32.981Z,99276.00
2023-05-15T01:00:01.099Z,99283.63
2023-05-15T01:02:29.269Z,99286.31
2023-05-15T01:04:57.396Z,99304.16
2023-05-15T01:07:25.427Z,99292.56
2023-05-15T01:09:54.737Z,99303.56
2023-05-15T01:12:22.702Z,99293.84
2023-05-15T01:14:50.812Z,99292.19
2023-05-15T01:17:18.822Z,99283.50
2023-05-15T01:19:47.120Z,99285.41
2023-05-15T01:22:36.190Z,99274.38
2023-05-15T01:25:48.933Z,99249.50
2023-05-15T01:28:20.956Z,99255.72
2023-05-15T01:30:49.180Z,99268.97
2023-05-15T01:33:19.952Z,99247.41
2023-05-15T01:35:50.781Z,99253.84
2023-05-15T01:38:21.207Z,99256.53
2023-05-15T01:40:50.115Z,99272.72
2023-05-15T01:43:25.725Z,99240.34
2023-05-15T01:45:53.840Z,99244.69
2023-05-15T01:48:21.866Z,99219.59
2023-05-15T01:50:49.847Z,99227.69
2023-05-15T01:53:17.791Z,99225.00
2023-05-15T01:55:45.850Z,99226.63
2023-05-15T01:58:13.770Z,99226.63
2023-05-15T02:00:43.534Z,99226.63
2023-05-15T02:03:11.499Z,99246.31
2023-05-15T02:05:39.514Z,99248.22
2023-05-15T02:08:07.561Z,99220.41
2023-05-15T02:10:35.599Z,99216.06
2023-05-15T02:13:03.580Z,99218.75
2023-05-15T02:15:31.649Z,99223.59
2023-05-15T02:18:01.086Z,99223.00
2023-05-15T02:20:29.421Z,99207.88
2023-05-15T02:22:57.401Z,99198.16
2023-05-15T02:25:29.097Z,99195.72
2023-05-15T02:27:58.858Z,99201.91
2023-05-15T02:30:32.773Z,99188.66
2023-05-15T02:33:07.102Z,99194.06
2023-05-15T02:35:39.093Z,99183.53
2023-05-15T02:38:09.472Z,99198.06
2023-05-15T02:40:38.000Z,99202.88
2023-05-15T02:43:06.077Z,99220.13
2023-05-15T02:45:34.167Z,99233.63
2023-05-15T02:48:03.640Z,99236.09
2023-05-15T02:50:31.703Z,99244.41
2023-05-15T02:53:03.692Z,99256.38
2023-05-15T02:55:31.830Z,99239.91
2023-05-15T02:57:59.882Z,99229.38
2023-05-15T03:00:27.940Z,99240.19
2023-05-15T03:02:56.061Z,99249.91
2023-05-15T03:05:26.249Z,99258.00
2023-05-15T03:07:56.001Z,99268.78
2023-05-15T03:10:24.330Z,99310.06
2023-05-15T03:12:52.292Z,99331.66
2023-05-15T03:15:20.431Z,99344.09
2023-05-15T03:17:48.471Z,99347.59
2023-05-15T03:20:16.632Z,99351.34
2023-05-15T03:22:46.082Z,99359.44
2023-05-15T03:25:14.095Z,99368.00
2023-05-15T03:27:42.112Z,99360.41
2023-05-15T03:30:11.170Z,99353.13
2023-05-15T03:32:39.129Z,99372.25
2023-05-15T03:35:07.619Z,99388.44
2023-05-15T03:37:35.512Z,99390.06
2023-05-15T03:40:07.458Z,99377.66
2023-05-15T03:42:35.400Z,99390.56
2023-05-15T03:45:03.374Z,99390.31
2023-05-15T03:47:31.332Z,99377.66
2023-05-15T03:49:59.311Z,99377.66
2023-05-15T03:52:27.307Z,99372.81
2023-05-15T03:54:55.201Z,99389.84
2023-05-15T03:57:24.612Z,99396.28
2023-05-15T03:59:52.503Z,99379.88
2023-05-15T04:02:20.573Z,99390.66
2023-05-15T04:04:48.952Z,99377.19
2023-05-15T04:07:19.230Z,99367.19
2023-05-15T04:09:47.136Z,99374.22
2023-05-15T04:12:15.275Z,99354.78
2023-05-15T04:14:44.709Z,99355.59
2023-05-15T04:17:12.785Z,99349.38
2023-05-15T04:19:43.062Z,99342.59
2023-05-15T04:22:11.157Z,99354.41
2023-05-15T04:24:39.125Z,99365.22
2023-05-15T04:27:07.114Z,99366.88
2023-05-15T04:29:35.162Z,99358.78
2023-05-15T04:32:04.676Z,99351.72
2023-05-15T04:34:32.695Z,99363.09
2023-05-15T04:37:01.270Z,99361.91
2023-05-15T04:39:29.189Z,99363.31
2023-05-15T04:41:57.165Z,99369.56
2023-05-15T04:44:25.068Z,99367.69
2023-05-15T04:46:52.958Z,99368.50
2023-05-15T04:49:22.300Z,99378.47
2023-05-15T04:51:50.299Z,99392.19
2023-05-15T04:54:18.218Z,99376.59
2023-05-15T04:56:46.750Z,99376.59
2023-05-15T04:59:15.994Z,99389.25
2023-05-15T05:01:44.160Z,99383.88
2023-05-15T05:04:12.200Z,99393.84
2023-05-15T05:06:41.573Z,99390.06
2023-05-15T05:09:10.818Z,99393.59
2023-05-15T05:11:43.641Z,99381.16
2023-05-15T05:14:11.564Z,99376.00
2023-05-15T05:16:39.502Z,99375.78
2023-05-15T05:19:07.483Z,99380.09
2023-05-15T05:21:35.556Z,99383.06
2023-05-15T05:24:05.029Z,99372.25
2023-05-15T05:26:33.058Z,99369.31
2023-05-15T05:29:01.110Z,99362.28
2023-05-15T05:31:29.155Z,99369.31
2023-05-15T05:33:57.119Z,99372.00
2023-05-15T05:36:25.026Z,99375.53
2023-05-15T05:38:52.986Z,99383.88
2023-05-15T05:41:22.751Z,99382.00
2023-05-15T05:43:50.758Z,99383.06
2023-05-15T05:46:19.306Z,99390.06
2023-05-15T05:48:47.310Z,99390.06
2023-05-15T05:51:15.990Z,99388.19
2023-05-15T05:53:43.968Z,99388.19
2023-05-15T05:56:11.960Z,99383.06
2023-05-15T05:58:41.361Z,99375.53
2023-05-15T06:01:09.371Z,99377.19
2023-05-15T06:03:37.458Z,99379.88
2023-05-15T06:06:06.105Z,99378.00
2023-05-15T06:08:34.131Z,99378.81
2023-05-15T06:11:02.123Z,99374.22
2023-05-15T06:13:30.087Z,99374.00
2023-05-15T06:15:59.464Z,99362.97
2023-05-15T06:18:27.447Z,99367.53
2023-05-15T06:20:55.436Z,99372.94
2023-05-15T06:23:24.320Z,99386.19
2023-05-15T06:25:52.514Z,99388.63
2023-05-15T06:28:20.858Z,99405.69
2023-05-15T06:30:48.887Z,99405.69
2023-05-15T06:33:18.293Z,99411.88
2023-05-15T06:35:46.379Z,99419.16
2023-05-15T06:38:14.373Z,99415.88
2023-05-15T06:40:42.368Z,99431.00
2023-05-15T06:43:10.324Z,99430.19
2023-05-15T06:45:38.330Z,99433.94
2023-05-15T06:48:06.672Z,99429.13
2023-05-15T06:50:36.063Z,99431.00
2023-05-15T06:53:04.341Z,99428.06
2023-05-15T06:55:34.210Z,99436.75
2023-05-15T06:58:02.248Z,99436.75
2023-05-15T07:00:30.226Z,99435.69
2023-05-15T07:02:58.406Z,99432.41
2023-05-15T07:05:26.674Z,99433.00
2023-05-15T07:07:56.229Z,99433.59
2023-05-15T07:10:24.418Z,99430.88
2023-05-15T07:12:52.696Z,99425.50
2023-05-15T07:15:20.771Z,99424.19
2023-05-15T07:17:48.731Z,99419.63
2023-05-15T07:20:16.647Z,99420.19
2023-05-15T07:22:54.908Z,99414.81
2023-05-15T07:25:25.466Z,99419.94
2023-05-15T07:27:53.773Z,99419.13
2023-05-15T07:30:21.990Z,99422.41
2023-05-15T07:32:50.109Z,99422.41
2023-05-15T07:35:18.484Z,99417.66
2023-05-15T07:37:46.968Z,99409.56
2023-05-15T07:40:15.659Z,99401.44
2023-05-15T07:42:45.399Z,99397.91
2023-05-15T07:45:13.475Z,99394.97
2023-05-15T07:47:45.500Z,99394.41
2023-05-15T07:50:13.544Z,99396.88
2023-05-15T07:52:41.521Z,99391.22
2023-05-15T07:55:10.151Z,99390.19
2023-05-15T07:57:38.071Z,99387.47
2023-05-15T08:00:12.863Z,99390.75
2023-05-15T08:02:41.106Z,99385.38
2023-05-15T08:05:09.598Z,99390.75
2023-05-15T08:07:37.586Z,99388.28
2023-05-15T08:10:06.511Z,99390.75
2023-05-15T08:12:34.522Z,99403.41
2023-05-15T08:15:02.593Z,99407.78
2023-05-15T08:17:32.126Z,99406.69
2023-05-15T08:20:00.216Z,99413.75
2023-05-15T08:22:30.399Z,99418.09
2023-05-15T08:24:58.557Z,99421.84
2023-05-15T08:27:26.597Z,99428.88
2023-05-15T08:29:55.293Z,99424.31
2023-05-15T08:32:23.323Z,99423.47
2023-05-15T08:34:52.679Z,99424.31
2023-05-15T08:37:20.602Z,99419.72
2023-05-15T08:39:48.618Z,99424.31
2023-05-15T08:42:19.173Z,99431.91
2023-05-15T08:44:47.087Z,99432.97
2023-05-15T08:47:15.239Z,99425.47
2023-05-15T08:49:48.806Z,99429.22
2023-05-15T08:52:18.178Z,99429.00
2023-05-15T08:54:48.449Z,99427.09
2023-05-15T08:57:22.494Z,99427.09
2023-05-15T08:59:50.665Z,99426.03
2023-05-15T09:02:18.764Z,99439.53
2023-05-15T09:04:46.622Z,99441.19
2023-05-15T09:07:15.068Z,99437.41
2023-05-15T09:09:44.517Z,99433.91
2023-05-15T09:12:12.525Z,99440.13
2023-05-15T09:14:40.451Z,99442.22
2023-05-15T09:17:08.598Z,99444.13
2023-05-15T09:19:36.658Z,99449.28
2023-05-15T09:22:16.902Z,99442.00
2023-05-15T09:24:48.170Z,99436.84
2023-05-15T09:27:16.228Z,99430.63
2023-05-15T09:29:44.240Z,99430.38
2023-05-15T09:32:13.263Z,99430.38
2023-05-15T09:34:41.935Z,99431.22
2023-05-15T09:37:11.042Z,99430.13
2023-05-15T09:39:42.150Z,99422.88
2023-05-15T09:42:12.274Z,99416.63
2023-05-15T09:44:42.274Z,99416.41
2023-05-15T09:47:10.696Z,99414.53
2023-05-15T09:49:38.790Z,99415.34
2023-05-15T09:52:09.136Z,99406.19
2023-05-15T09:54:37.259Z,99409.94
2023-05-15T09:57:13.450Z,99403.50
2023-05-15T09:59:45.104Z,99402.44
2023-05-15T10:02:15.156Z,99400.31
2023-05-15T10:04:43.089Z,99398.19
2023-05-15T10:07:11.099Z,99399.03
2023-05-15T10:09:39.023Z,99383.63
2023-05-15T10:12:07.560Z,99385.28
2023-05-15T10:14:36.818Z,99380.44
2023-05-15T10:17:04.932Z,99374.00
2023-05-15T10:19:32.911Z,99375.41
2023-05-15T10:22:01.079Z,99366.47
2023-05-15T10:24:29.310Z,99368.13
2023-05-15T10:26:57.251Z,99366.00
2023-05-15T10:29:26.783Z,99364.94
2023-05-15T10:31:56.117Z,99370.31
2023-05-15T10:34:24.051Z,99373.84
2023-05-15T10:36:52.016Z,99377.34
2023-05-15T10:39:19.922Z,99381.72
2023-05-15T10:41:47.847Z,99386.03
2023-05-15T10:44:15.787Z,99393.34
2023-05-15T10:46:44.548Z,99381.72
2023-05-15T10:49:13.914Z,99399.06
2023-05-15T10:51:43.234Z,99382.84
2023-05-15T10:54:11.164Z,99386.41
2023-05-15T10:56:40.596Z,99389.91
2023-05-15T10:59:09.367Z,99386.94
2023-05-15T11:01:38.012Z,99380.75
2023-05-15T11:04:07.720Z,99374.25
2023-05-15T11:06:37.540Z,99370.53
2023-05-15T11:09:36.984Z,99368.63
2023-05-15T11:12:05.981Z,99373.22
2023-05-15T11:14:36.212Z,99365.94
2023-05-15T11:17:05.404Z,99371.91
2023-05-15T11:19:37.707Z,99360.84
2023-05-15T11:22:19.208Z,99347.13
2023-05-15T11:24:51.944Z,99332.53
2023-05-15T11:27:20.728Z,99319.03
2023-05-15T11:30:08.008Z,99318.00
2023-05-15T11:32:45.970Z,99299.06
2023-05-15T11:35:14.176Z,99294.50
2023-05-15T11:37:47.258Z,99283.69
2023-05-15T11:40:15.805Z,99280.75
2023-05-15T11:42:43.762Z,99259.16
2023-05-15T11:45:11.994Z,99252.91
2023-05-15T11:47:40.021Z,99250.19
2023-05-15T11:50:09.009Z,99236.69
2023-05-15T11:52:36.923Z,99218.28
2023-05-15T11:55:07.422Z,99205.84
2023-05-15T11:57:35.412Z,99207.97
2023-05-15T12:00:04.051Z,99203.88
2023-05-15T12:02:32.076Z,99190.88
2023-05-15T12:05:00.167Z,99183.28
2023-05-15T12:07:28.191Z,99187.38
2023-05-15T12:09:56.199Z,99190.88
2023-05-15T12:12:27.746Z,99198.16
2023-05-15T12:14:59.364Z,99205.44
2023-05-15T12:17:27.770Z,99203.31
2023-05-15T12:19:55.914Z,99202.81
2023-05-15T12:22:23.988Z,99213.38
2023-05-15T12:24:51.996Z,99205.28
2023-05-15T12:27:19.941Z,99210.66
2023-05-15T12:29:49.290Z,99210.66
2023-05-15T12:32:17.503Z,99220.41
2023-05-15T12:34:45.804Z,99208.28
2023-05-15T12:37:14.546Z,99203.97
2023-05-15T12:39:52.124Z,99193.97
2023-05-15T12:42:20.117Z,99183.16
2023-05-15T12:44:51.653Z,99188.56
2023-05-15T12:47:23.653Z,99185.63
2023-05-15T12:49:51.628Z,99195.34
2023-05-15T12:52:19.582Z,99187.03
2023-05-15T12:54:47.521Z,99185.13
2023-05-15T12:57:15.961Z,99186.75
2023-05-15T12:59:43.919Z,99190.31
2023-05-15T13:02:13.433Z,99185.44
2023-05-15T13:04:41.485Z,99178.16
2023-05-15T13:07:09.448Z,99176.28
2023-05-15T13:09:37.424Z,99183.31
2023-05-15T13:12:05.702Z,99193.88
2023-05-15T13:14:34.087Z,99186.59
2023-05-15T13:17:03.005Z,99182.00
2023-05-15T13:19:32.302Z,99180.13
2023-05-15T13:22:00.397Z,99197.41
2023-05-15T13:24:28.331Z,99190.34
2023-05-15T13:26:56.248Z,99205.75
2023-05-15T13:29:24.247Z,99196.81
2023-05-15T13:31:52.532Z,99194.13
2023-05-15T13:34:21.196Z,99202.22
2023-05-15T13:36:50.539Z,99198.94
2023-05-15T13:39:19.262Z,99196.50
2023-05-15T13:41:47.190Z,99193.81
2023-05-15T13:44:15.347Z,99201.09
2023-05-15T13:46:43.304Z,99207.56
2023-05-15T13:49:12.070Z,99202.16
2023-05-15T13:51:39.951Z,99214.03
2023-05-15T13:54:09.314Z,99208.06
2023-05-15T13:56:37.285Z,99208.06
2023-05-15T13:59:05.196Z,99212.88
2023-05-15T14:01:33.134Z,99217.22
2023-05-15T14:04:01.147Z,99206.44
2023-05-15T14:06:29.102Z,99217.47
2023-05-15T14:08:57.072Z,99215.56
2023-05-15T14:11:26.559Z,99214.75
2023-05-15T14:13:54.515Z,99211.25
2023-05-15T14:16:22.462Z,99202.34
2023-05-15T14:18:50.463Z,99202.56
2023-05-15T14:21:18.397Z,99202.56
2023-05-15T14:23:46.300Z,99200.94
2023-05-15T14:26:14.235Z,99191.19
2023-05-15T14:28:44.078Z,99190.59
2023-05-15T14:31:12.013Z,99194.66
2023-05-15T14:33:40.102Z,99207.06
2023-05-15T14:36:08.153Z,99199.22
2023-05-15T14:38:37.373Z,99205.09
2023-05-15T14:41:05.367Z,99219.41
2023-05-15T14:43:33.332Z,99218.88
2023-05-15T14:46:03.239Z,99219.69
2023-05-15T14:48:31.216Z,99215.59
2023-05-15T14:50:59.309Z,99218.53
2023-05-15T14:53:27.348Z,99209.38
2023-05-15T14:55:55.752Z,99213.13
2023-05-15T14:58:23.723Z,99208.53
2023-05-15T15:00:51.777Z,99213.94
2023-05-15T15:03:21.971Z,99214.78
2023-05-15T15:05:50.084Z,99229.31
2023-05-15T15:08:18.049Z,99238.50
2023-05-15T15:10:46.083Z,99253.63
2023-05-15T15:13:14.139Z,99262.00
2023-05-15T15:15:42.162Z,99276.31
2023-05-15T15:18:10.293Z,99287.91
2023-05-15T15:20:39.725Z,99296.25
2023-05-15T15:23:07.650Z,99301.66
2023-05-15T15:25:35.684Z,99312.44
2023-05-15T15:28:03.843Z,99318.94
2023-05-15T15:30:31.984Z,99336.19
2023-05-15T15:32:59.980Z,99343.47
2023-05-15T15:35:28.102Z,99347.81
2023-05-15T15:37:57.652Z,99364.25
2023-05-15T15:40:25.835Z,99361.00
2023-05-15T15:42:54.297Z,99379.88
2023-05-15T15:45:22.398Z,99383.63
2023-05-15T15:47:50.500Z,99385.28
2023-05-15T15:50:18.560Z,99395.50
2023-05-15T15:52:46.573Z,99394.69
2023-05-15T15:55:15.836Z,99403.59
2023-05-15T15:57:43.924Z,99391.16
2023-05-15T16:00:12.868Z,99393.84
2023-05-15T16:02:41.403Z,99394.91
2023-05-15T16:05:10.146Z,99394.91
2023-05-15T16:07:38.173Z,99392.22
2023-05-15T16:10:12.523Z,99398.44
2023-05-15T16:12:43.121Z,99417.34
2023-05-15T16:17:42.311Z,99434.34
2023-05-15T16:20:10.637Z,99426.50
2023-05-15T16:22:38.625Z,99389.50
2023-05-15T16:25:07.180Z,99423.00
2023-05-15T16:27:35.095Z,99418.63
2023-05-15T16:30:04.729Z,99400.00
2023-05-15T16:32:34.025Z,99398.09
2023-05-15T16:35:02.083Z,99387.53
2023-05-15T16:37:30.046Z,99365.13
2023-05-15T16:39:57.980Z,99353.72
2023-05-15T16:42:26.204Z,99327.81
2023-05-15T16:44:54.151Z,99299.16
2023-05-15T16:47:23.615Z,99266.75
2023-05-15T16:49:51.611Z,99250.56
2023-05-15T16:52:19.529Z,99248.13
2023-05-15T16:54:47.518Z,99268.91
2023-05-15T16:57:15.671Z,99269.72
2023-05-15T16:59:43.706Z,99280.53
2023-05-15T17:02:11.854Z,99282.16
2023-05-15T17:04:41.201Z,99290.50
2023-05-15T17:07:09.301Z,99284.28
2023-05-15T17:09:39.050Z,99261.84
2023-05-15T17:12:07.892Z,99270.78
2023-05-15T17:14:35.830Z,99259.16
2023-05-15T17:17:03.817Z,99262.94
2023-05-15T17:19:33.191Z,99264.00
2023-05-15T17:22:02.543Z,99270.44
2023-05-15T17:24:42.314Z,99269.41
2023-05-15T17:27:18.431Z,99276.91
2023-05-15T17:29:46.434Z,99260.94
2023-05-15T17:32:14.799Z,99268.22
2023-05-15T17:34:42.841Z,99274.44
2023-05-15T17:37:12.198Z,99281.72
2023-05-15T17:39:40.225Z,99294.41
2023-05-15T17:42:08.225Z,99304.38
2023-05-15T17:44:36.413Z,99297.34
2023-05-15T17:47:04.348Z,99299.00
2023-05-15T17:49:34.258Z,99304.38
2023-05-15T17:52:02.324Z,99310.34
2023-05-15T17:54:31.704Z,99312.59
2023-05-15T17:57:00.185Z,99314.22
2023-05-15T17:59:28.563Z,99316.69
2023-05-15T18:01:56.701Z,99317.50
2023-05-15T18:04:24.828Z,99309.41
2023-05-15T18:06:52.777Z,99304.00
2023-05-15T18:09:24.199Z,99311.84
2023-05-15T18:11:54.085Z,99299.16
2023-05-15T18:14:22.153Z,99293.75
2023-05-15T18:16:50.075Z,99297.53
2023-05-15T18:19:18.265Z,99294.25
2023-05-15T18:21:46.362Z,99315.84
2023-05-15T18:24:14.363Z,99316.91
2023-05-15T18:26:42.267Z,99315.28
2023-05-15T18:29:11.589Z,99312.59
2023-05-15T18:31:39.554Z,99306.59
2023-05-15T18:34:07.720Z,99316.31
2023-05-15T18:36:35.897Z,99317.63
2023-05-15T18:39:03.851Z,99313.03
2023-05-15T18:41:31.761Z,99307.66
2023-05-15T18:43:59.751Z,99313.03
2023-05-15T18:46:31.182Z,99317.63
2023-05-15T18:48:59.840Z,99316.00
2023-05-15T18:51:27.842Z,99311.41
2023-05-15T18:53:55.809Z,99307.56
2023-05-15T18:56:25.038Z,99314.34
2023-05-15T18:58:53.088Z,99311.91
2023-05-15T19:01:22.153Z,99307.56
2023-05-15T19:03:51.915Z,99317.31
2023-05-15T19:06:20.479Z,99315.66
2023-05-15T19:08:48.828Z,99324.81
2023-05-15T19:11:17.576Z,99329.63
2023-05-15T19:13:45.572Z,99335.03
2023-05-15T19:16:13.658Z,99333.13
2023-05-15T19:18:41.806Z,99349.31
2023-05-15T19:21:11.347Z,99353.06
2023-05-15T19:23:39.342Z,99359.31
2023-05-15T19:26:07.354Z,99359.31
2023-05-15T19:28:35.806Z,99363.06
2023-05-15T19:31:04.330Z,99362.00
2023-05-15T19:33:32.307Z,99370.91
2023-05-15T19:36:00.348Z,99364.22
2023-05-15T19:38:29.866Z,99372.56
2023-05-15T19:40:57.823Z,99368.00
2023-05-15T19:43:25.794Z,99364.72
2023-05-15T19:45:53.870Z,99370.91
2023-05-15T19:48:21.822Z,99371.75
2023-05-15T19:50:49.789Z,99369.88
2023-05-15T19:53:17.765Z,99376.31
2023-05-15T19:55:47.266Z,99375.50
2023-05-15T19:58:15.263Z,99359.31
2023-05-15T20:00:43.294Z,99353.31
2023-05-15T20:03:11.362Z,99342.53
2023-05-15T20:05:41.000Z,99341.47
2023-05-15T20:08:08.991Z,99335.25
2023-05-15T20:10:36.902Z,99334.44
2023-05-15T20:13:06.212Z,99322.78
2023-05-15T20:15:35.174Z,99319.28
2023-05-15T20:18:03.234Z,99324.69
2023-05-15T20:20:31.317Z,99316.59
2023-05-15T20:22:59.538Z,99327.38
2023-05-15T20:25:29.033Z,99321.97
2023-05-15T20:27:58.671Z,99323.63
2023-05-15T20:30:28.482Z,99321.97
2023-05-15T20:32:56.576Z,99315.78
2023-05-15T20:35:25.225Z,99311.19
2023-05-15T20:37:53.547Z,99320.09
2023-05-15T20:40:22.996Z,99321.16
2023-05-15T20:42:50.973Z,99323.88
2023-05-15T20:45:18.961Z,99326.09
2023-05-15T20:47:48.379Z,99323.63
2023-05-15T20:50:16.378Z,99325.25
2023-05-15T20:52:44.515Z,99330.66
2023-05-15T20:55:16.006Z,99320.94
2023-05-15T20:57:44.623Z,99320.09
2023-05-15T21:00:15.494Z,99318.25
2023-05-15T21:02:43.749Z,99317.97
2023-05-15T21:05:13.116Z,99323.63
2023-05-15T21:07:41.103Z,99321.75
2023-05-15T21:10:09.622Z,99318.25
2023-05-15T21:12:37.609Z,99302.06
2023-05-15T21:15:06.369Z,99303.09
2023-05-15T21:17:34.272Z,99303.09
2023-05-15T21:20:04.174Z,99300.41
2023-05-15T21:22:33.540Z,99305.78
2023-05-15T21:25:01.531Z,99293.38
2023-05-15T21:27:29.404Z,99283.63
2023-05-15T21:29:57.312Z,99285.28
2023-05-15T21:32:25.428Z,99287.16
2023-05-15T21:34:53.441Z,99291.72
2023-05-15T21:37:21.367Z,99290.09
2023-05-15T21:39:50.660Z,99293.59
2023-05-15T21:42:18.621Z,99289.00
2023-05-15T21:44:46.593Z,99278.47
2023-05-15T21:47:14.598Z,99273.91
2023-05-15T21:49:42.499Z,99261.47
2023-05-15T21:52:10.414Z,99261.47
2023-05-15T21:54:38.372Z,99254.41
2023-05-15T21:57:07.877Z,99258.19
2023-05-15T21:59:35.872Z,99260.06
2023-05-15T22:02:03.992Z,99259.22
2023-05-15T22:04:32.060Z,99243.03
2023-05-15T22:07:00.148Z,99242.50
2023-05-15T22:09:28.175Z,99260.53
2023-05-15T22:11:56.551Z,99250.81
2023-05-15T22:14:27.359Z,99248.13
2023-05-15T22:16:55.340Z,99245.63
2023-05-15T22:19:33.340Z,99246.72
2023-05-15T22:22:04.516Z,99250.72
2023-05-15T22:24:32.520Z,99251.53
2023-05-15T22:27:01.650Z,99260.47
2023-05-15T22:29:31.495Z,99258.81
2023-05-15T22:32:00.701Z,99259.63
2023-05-15T22:34:30.106Z,99256.91
2023-05-15T22:36:59.288Z,99261.28
2023-05-15T22:39:27.244Z,99269.38
2023-05-15T22:41:56.526Z,99273.69
2023-05-15T22:44:25.595Z,99266.66
2023-05-15T22:46:55.012Z,99261.28
2023-05-15T22:49:25.585Z,99256.91
2023-05-15T22:51:55.323Z,99259.63
2023-05-15T22:54:25.023Z,99260.47
2023-05-15T22:56:54.336Z,99265.84
2023-05-15T22:59:23.641Z,99257.19
2023-05-15T23:01:54.066Z,99244.72
2023-05-15T23:04:23.296Z,99243.09
2023-05-15T23:06:52.520Z,99239.59
2023-05-15T23:09:21.990Z,99231.50
2023-05-15T23:11:51.759Z,99226.59
2023-05-15T23:14:21.758Z,99242.78
2023-05-15T23:16:52.174Z,99248.41
2023-05-15T23:19:22.757Z,99246.50
2023-05-15T23:21:52.007Z,99249.47
2023-05-15T23:24:20.052Z,99253.78
2023-05-15T23:26:49.221Z,99254.03
2023-05-15T23:29:18.483Z,99253.22
2023-05-15T23:31:47.648Z,99240.78
2023-05-15T23:34:17.130Z,99236.22
2023-05-15T23:36:53.700Z,99235.41
2023-05-15T23:39:22.809Z,99239.72
2023-05-15T23:41:51.964Z,99240.53
2023-05-15T23:44:21.276Z,99227.03
2023-05-15T23:46:52.723Z,99228.69
2023-05-15T23:49:20.662Z,99221.66
2023-05-15T23:51:50.999Z,99227.03
2023-05-15T23:54:21.309Z,99221.66
2023-05-15T23:56:50.402Z,99221.66
2023-05-15T23:59:19.836Z,99226.22
